Mekhanik Pustoshny — UCBM — position and weather

sailwx.info

Track history (hours):
 
Tides and Currents Weather Stations Pressure Air Temp Water Temp Dewpoint Dewpoint Depression Visibility Wind Speed Wind Dir Waves Ship Positions

Mekhanik Pustoshny

Last reported at 2018-Jun-16 16:58 UTC. Time now 2018-Jun-18 05:24 UTC.
Position N 66°13' E 011°21'.

Length 85 m; beam 15 m.

Type: Cargo ship. MMSI: 273114000.

Date/timePositionNaut miles runAvg speedWind from/ knotsBaromVisibWave heightAir tempDewpointWater temp
2018-Jun-16 16:58N 66°13' E 011°21'4 8.1
2018-Jun-16 16:30N 66°15' E 011°29'4 7.9
2018-Jun-16 16:00N 66°16' E 011°38'4 8.1
2018-Jun-16 15:30N 66°17' E 011°48'4 7.9
2018-Jun-16 15:00N 66°17' E 011°58'4 7.9
2018-Jun-16 14:31N 66°17' E 012°08'4 8.6
2018-Jun-16 14:00N 66°17' E 012°18'5 9.3
2018-Jun-16 13:30N 66°15' E 012°29'5 9.3
2018-Jun-16 13:00N 66°13' E 012°40'5 9.5
2018-Jun-16 12:30N 66°12' E 012°51'4 8.9
2018-Jun-16 12:00N 66°14' E 013°01'1 1.3
2018-Jun-16 11:30N 66°14' E 013°03'0 0.0
2018-Jun-16 11:00N 66°14' E 013°03'0 0.0
2018-Jun-16 10:30N 66°14' E 013°03'0 0.0
2018-Jun-16 10:00N 66°14' E 013°03'0 0.0
2018-Jun-16 09:30N 66°14' E 013°03'0 0.0
2018-Jun-16 08:57N 66°14' E 013°03'0 0.0
2018-Jun-16 08:30N 66°14' E 013°03'0 0.0
2018-Jun-16 08:00N 66°14' E 013°03'0 0.0
2018-Jun-16 07:30N 66°14' E 013°03'0 0.0
2018-Jun-16 07:00N 66°14' E 013°03'0 0.0
2018-Jun-16 06:24N 66°14' E 013°03'0 0.0
2018-Jun-16 06:00N 66°14' E 013°03'0 0.0
2018-Jun-16 05:30N 66°14' E 013°03'0 0.0
2018-Jun-16 05:00N 66°14' E 013°03'0 0.0
2018-Jun-16 04:30N 66°14' E 013°03'0 0.0
2018-Jun-16 04:00N 66°14' E 013°03'0 0.0
2018-Jun-16 03:30N 66°14' E 013°03'0 0.0
2018-Jun-16 03:00N 66°14' E 013°03'0 0.0
2018-Jun-16 02:30N 66°14' E 013°03'0 0.0
2018-Jun-16 02:00N 66°14' E 013°03'0 0.0
2018-Jun-16 01:30N 66°14' E 013°03'0 0.0
2018-Jun-16 01:00N 66°14' E 013°03'0 0.0
2018-Jun-16 00:27N 66°14' E 013°03'0 0.0
2018-Jun-16 00:00N 66°14' E 013°03'0 0.0
2018-Jun-15 23:30N 66°14' E 013°03'0 0.0
2018-Jun-15 22:57N 66°14' E 013°03'0 0.0
2018-Jun-15 22:30N 66°14' E 013°03'0 0.0
2018-Jun-15 22:00N 66°14' E 013°03'0 0.0
2018-Jun-15 21:30N 66°14' E 013°03'0 0.0
2018-Jun-15 21:00N 66°14' E 013°03'0 0.0
2018-Jun-15 20:27N 66°14' E 013°03'0 0.0
2018-Jun-15 20:00N 66°14' E 013°03'0 0.0
2018-Jun-15 19:30N 66°14' E 013°03'0 0.0
2018-Jun-15 19:00N 66°14' E 013°03'0 0.0
2018-Jun-15 18:30N 66°14' E 013°03'0 0.0
2018-Jun-15 18:00N 66°14' E 013°03'0 0.0
2018-Jun-15 17:30N 66°14' E 013°03'0 0.0
2018-Jun-15 17:00N 66°14' E 013°03'0 0.0
2018-Jun-15 16:30N 66°14' E 013°03'0 0.0
2018-Jun-15 15:57N 66°14' E 013°03'0 0.0
2018-Jun-15 15:30N 66°14' E 013°03'0 0.0
2018-Jun-15 15:00N 66°14' E 013°03'0 0.1
2018-Jun-15 14:30N 66°14' E 013°03'0 0.0
2018-Jun-15 14:00N 66°14' E 013°03'0 0.0
2018-Jun-15 13:30N 66°14' E 013°03'0 0.0
2018-Jun-15 13:00N 66°14' E 013°03'0 0.0
2018-Jun-15 12:30N 66°14' E 013°03'0 0.0
2018-Jun-15 12:00N 66°14' E 013°03'0 0.0
2018-Jun-15 11:30N 66°14' E 013°03'0 0.0
2018-Jun-15 11:00N 66°14' E 013°03'0 0.0
2018-Jun-15 10:30N 66°14' E 013°03'0 0.0
2018-Jun-15 10:00N 66°14' E 013°03'0 0.0
2018-Jun-15 09:30N 66°14' E 013°03'0 0.0
2018-Jun-15 09:00N 66°14' E 013°03'0 0.0
2018-Jun-15 08:30N 66°14' E 013°03'0 0.0
2018-Jun-15 08:00N 66°14' E 013°03'0 0.0
2018-Jun-15 07:30N 66°14' E 013°03'0 0.0
2018-Jun-15 07:00N 66°14' E 013°03'0 0.0
2018-Jun-15 06:30N 66°14' E 013°03'0 0.0
2018-Jun-15 06:00N 66°14' E 013°03'0 0.0
2018-Jun-15 05:30N 66°14' E 013°03'0 0.0
2018-Jun-15 04:57N 66°14' E 013°03'0 0.0
2018-Jun-15 04:30N 66°14' E 013°03'0 0.0
2018-Jun-15 04:00N 66°14' E 013°03'0 0.0
2018-Jun-15 03:30N 66°14' E 013°03'0 0.0
2018-Jun-15 03:00N 66°14' E 013°03'0 0.0
2018-Jun-15 02:30N 66°14' E 013°03'0 0.0
2018-Jun-15 02:00N 66°14' E 013°03'0 0.1
2018-Jun-15 01:30N 66°14' E 013°03'0 0.0
2018-Jun-15 01:00N 66°14' E 013°03'0 0.1
2018-Jun-15 00:30N 66°14' E 013°03'0 0.0
2018-Jun-15 00:00N 66°14' E 013°03'0 0.0
2018-Jun-14 23:30N 66°14' E 013°03'0 0.1
2018-Jun-14 23:00N 66°14' E 013°02'0 0.0
2018-Jun-14 22:30N 66°14' E 013°02'0 0.0
2018-Jun-14 22:00N 66°14' E 013°02'0 0.1
2018-Jun-14 21:30N 66°14' E 013°02'0 0.0
2018-Jun-14 21:00N 66°14' E 013°02'0 0.1
2018-Jun-14 20:31N 66°14' E 013°02'3 6.7
2018-Jun-14 20:01N 66°13' E 012°54'5 8.9
2018-Jun-14 19:30N 66°13' E 012°43'5 9.6
2018-Jun-14 19:00N 66°15' E 012°32'4 8.9
2018-Jun-14 18:31N 66°16' E 012°22'510.2
2018-Jun-14 18:00N 66°17' E 012°09'510.8
2018-Jun-14 17:31N 66°20' E 011°57'510.5
2018-Jun-14 17:01N 66°22' E 011°46'510.5
2018-Jun-14 16:30N 66°27' E 011°43'510.2
2018-Jun-14 16:01N 66°32' E 011°41'510.1
2018-Jun-14 15:30N 66°37' E 011°39'5 9.9
2018-Jun-14 15:01N 66°42' E 011°37'83 9.9
2018-Jun-14 06:42N 68°03' E 012°16'210.8
2018-Jun-14 06:30N 68°05' E 012°20'510.9
2018-Jun-14 05:59N 68°10' E 012°29'511.0
2018-Jun-14 05:30N 68°14' E 012°37'510.9
2018-Jun-14 05:01N 68°18' E 012°46'610.8
2018-Jun-14 04:29N 68°23' E 012°55'510.7
2018-Jun-14 04:00N 68°27' E 013°03'510.7
2018-Jun-14 03:30N 68°31' E 013°12'610.8
2018-Jun-14 02:59N 68°36' E 013°21'510.9
2018-Jun-14 02:30N 68°40' E 013°29'511.0
2018-Jun-14 02:00N 68°45' E 013°38'611.1
2018-Jun-14 01:30N 68°49' E 013°47'611.2
2018-Jun-14 00:59N 68°53' E 013°57'511.2
2018-Jun-14 00:31N 68°58' E 014°06'611.0
2018-Jun-14 00:00N 69°02' E 014°15'510.7
2018-Jun-13 23:30N 69°06' E 014°24'510.5
2018-Jun-13 23:00N 69°10' E 014°34'510.2
2018-Jun-13 22:30N 69°14' E 014°42'510.5
2018-Jun-13 22:00N 69°19' E 014°50'610.8
2018-Jun-13 21:29N 69°23' E 014°60'510.6
2018-Jun-13 21:00N 69°27' E 015°10'510.7
2018-Jun-13 20:29N 69°30' E 015°23'510.3
2018-Jun-13 20:00N 69°33' E 015°35'5 9.3
2018-Jun-13 19:30N 69°36' E 015°45'5 9.4
2018-Jun-13 19:00N 69°39' E 015°55'5 9.7
2018-Jun-13 18:30N 69°42' E 016°05'5 9.8
2018-Jun-13 18:00N 69°45' E 016°16'510.1
2018-Jun-13 17:30N 69°49' E 016°27'510.2
2018-Jun-13 17:00N 69°52' E 016°38'4910.5
2018-Jun-13 12:18N 70°25' E 018°26'310.1
2018-Jun-13 12:00N 70°27' E 018°34'510.1
2018-Jun-13 11:30N 70°29' E 018°47'5 9.9
2018-Jun-13 10:59N 70°31' E 019°01'5 9.7
2018-Jun-13 10:31N 70°33' E 019°14'5 9.8
2018-Jun-13 09:59N 70°35' E 019°28'510.2
2018-Jun-13 09:31N 70°38' E 019°41'510.3
2018-Jun-13 09:00N 70°40' E 019°55'3810.8
2018-Jun-13 05:28N 70°55' E 021°41'510.9
2018-Jun-13 05:00N 70°58' E 021°54'611.0
2018-Jun-13 04:30N 71°01' E 022°09'5 9.6
2018-Jun-13 04:00N 71°03' E 022°22'5 9.4
2018-Jun-13 03:30N 71°05' E 022°35'5 9.8
2018-Jun-13 03:00N 71°07' E 022°49'510.0
2018-Jun-13 02:30N 71°09' E 023°03'5 9.8
2018-Jun-13 02:01N 71°11' E 023°16'5 9.8
2018-Jun-13 01:30N 71°14' E 023°30'5 9.9
2018-Jun-13 01:00N 71°16' E 023°44'5 9.8
2018-Jun-13 00:30N 71°18' E 023°58'510.0
2018-Jun-13 00:00N 71°19' E 024°13'510.4
2018-Jun-12 23:30N 71°20' E 024°29'510.4
2018-Jun-12 23:00N 71°21' E 024°45'510.6
2018-Jun-12 22:30N 71°22' E 025°01'510.7
2018-Jun-12 22:00N 71°22' E 025°18'511.1
2018-Jun-12 21:30N 71°24' E 025°34'610.7
2018-Jun-12 20:59N 71°23' E 025°52'510.9
2018-Jun-12 20:30N 71°23' E 026°08'611.7
2018-Jun-12 20:00N 71°23' E 026°26'611.8
2018-Jun-12 19:30N 71°22' E 026°45'611.3
2018-Jun-12 19:00N 71°22' E 027°02'611.2
2018-Jun-12 18:30N 71°21' E 027°20'611.6
2018-Jun-12 17:59N 71°21' E 027°39'511.0
2018-Jun-12 17:30N 71°20' E 027°55'510.4
2018-Jun-12 17:00N 71°19' E 028°11'510.4
2018-Jun-12 16:31N 71°18' E 028°27'510.4
2018-Jun-12 16:00N 71°16' E 028°42'510.1
2018-Jun-12 15:30N 71°14' E 028°57'510.0
2018-Jun-12 15:01N 71°13' E 029°11'510.1
2018-Jun-12 14:30N 71°12' E 029°27'510.1
2018-Jun-12 14:00N 71°11' E 029°42'510.2
2018-Jun-12 13:30N 71°10' E 029°58'36 8.2
2018-Jun-12 09:05N 70°45' E 031°20'111.3
2018-Jun-12 09:00N 70°45' E 031°21'  
Track history (hours):
 
Tides and Currents Weather Stations Pressure Air Temp Water Temp Dewpoint Dewpoint Depression Visibility Wind Speed Wind Dir Waves Ship Positions

Mekhanik Pustoshny

Last reported at 2018-Jun-16 16:58 UTC. Time now 2018-Jun-18 05:24 UTC.
Position N 66°13' E 011°21'.

Length 85 m; beam 15 m.

Type: Cargo ship. MMSI: 273114000.

Date/timePositionNaut miles runAvg speedWind from/ knotsBaromVisibWave heightAir tempDewpointWater temp
2018-Jun-16 16:58N 66°13' E 011°21'4 8.1
2018-Jun-16 16:30N 66°15' E 011°29'4 7.9
2018-Jun-16 16:00N 66°16' E 011°38'4 8.1
2018-Jun-16 15:30N 66°17' E 011°48'4 7.9
2018-Jun-16 15:00N 66°17' E 011°58'4 7.9
2018-Jun-16 14:31N 66°17' E 012°08'4 8.6
2018-Jun-16 14:00N 66°17' E 012°18'5 9.3
2018-Jun-16 13:30N 66°15' E 012°29'5 9.3
2018-Jun-16 13:00N 66°13' E 012°40'5 9.5
2018-Jun-16 12:30N 66°12' E 012°51'4 8.9
2018-Jun-16 12:00N 66°14' E 013°01'1 1.3
2018-Jun-16 11:30N 66°14' E 013°03'0 0.0
2018-Jun-16 11:00N 66°14' E 013°03'0 0.0
2018-Jun-16 10:30N 66°14' E 013°03'0 0.0
2018-Jun-16 10:00N 66°14' E 013°03'0 0.0
2018-Jun-16 09:30N 66°14' E 013°03'0 0.0
2018-Jun-16 08:57N 66°14' E 013°03'0 0.0
2018-Jun-16 08:30N 66°14' E 013°03'0 0.0
2018-Jun-16 08:00N 66°14' E 013°03'0 0.0
2018-Jun-16 07:30N 66°14' E 013°03'0 0.0
2018-Jun-16 07:00N 66°14' E 013°03'0 0.0
2018-Jun-16 06:24N 66°14' E 013°03'0 0.0
2018-Jun-16 06:00N 66°14' E 013°03'0 0.0
2018-Jun-16 05:30N 66°14' E 013°03'0 0.0
2018-Jun-16 05:00N 66°14' E 013°03'0 0.0
2018-Jun-16 04:30N 66°14' E 013°03'0 0.0
2018-Jun-16 04:00N 66°14' E 013°03'0 0.0
2018-Jun-16 03:30N 66°14' E 013°03'0 0.0
2018-Jun-16 03:00N 66°14' E 013°03'0 0.0
2018-Jun-16 02:30N 66°14' E 013°03'0 0.0
2018-Jun-16 02:00N 66°14' E 013°03'0 0.0
2018-Jun-16 01:30N 66°14' E 013°03'0 0.0
2018-Jun-16 01:00N 66°14' E 013°03'0 0.0
2018-Jun-16 00:27N 66°14' E 013°03'0 0.0
2018-Jun-16 00:00N 66°14' E 013°03'0 0.0
2018-Jun-15 23:30N 66°14' E 013°03'0 0.0
2018-Jun-15 22:57N 66°14' E 013°03'0 0.0
2018-Jun-15 22:30N 66°14' E 013°03'0 0.0
2018-Jun-15 22:00N 66°14' E 013°03'0 0.0
2018-Jun-15 21:30N 66°14' E 013°03'0 0.0
2018-Jun-15 21:00N 66°14' E 013°03'0 0.0
2018-Jun-15 20:27N 66°14' E 013°03'0 0.0
2018-Jun-15 20:00N 66°14' E 013°03'0 0.0
2018-Jun-15 19:30N 66°14' E 013°03'0 0.0
2018-Jun-15 19:00N 66°14' E 013°03'0 0.0
2018-Jun-15 18:30N 66°14' E 013°03'0 0.0
2018-Jun-15 18:00N 66°14' E 013°03'0 0.0
2018-Jun-15 17:30N 66°14' E 013°03'0 0.0
2018-Jun-15 17:00N 66°14' E 013°03'0 0.0
2018-Jun-15 16:30N 66°14' E 013°03'0 0.0
2018-Jun-15 15:57N 66°14' E 013°03'0 0.0
2018-Jun-15 15:30N 66°14' E 013°03'0 0.0
2018-Jun-15 15:00N 66°14' E 013°03'0 0.1
2018-Jun-15 14:30N 66°14' E 013°03'0 0.0
2018-Jun-15 14:00N 66°14' E 013°03'0 0.0
2018-Jun-15 13:30N 66°14' E 013°03'0 0.0
2018-Jun-15 13:00N 66°14' E 013°03'0 0.0
2018-Jun-15 12:30N 66°14' E 013°03'0 0.0
2018-Jun-15 12:00N 66°14' E 013°03'0 0.0
2018-Jun-15 11:30N 66°14' E 013°03'0 0.0
2018-Jun-15 11:00N 66°14' E 013°03'0 0.0
2018-Jun-15 10:30N 66°14' E 013°03'0 0.0
2018-Jun-15 10:00N 66°14' E 013°03'0 0.0
2018-Jun-15 09:30N 66°14' E 013°03'0 0.0
2018-Jun-15 09:00N 66°14' E 013°03'0 0.0
2018-Jun-15 08:30N 66°14' E 013°03'0 0.0
2018-Jun-15 08:00N 66°14' E 013°03'0 0.0
2018-Jun-15 07:30N 66°14' E 013°03'0 0.0
2018-Jun-15 07:00N 66°14' E 013°03'0 0.0
2018-Jun-15 06:30N 66°14' E 013°03'0 0.0
2018-Jun-15 06:00N 66°14' E 013°03'0 0.0
2018-Jun-15 05:30N 66°14' E 013°03'0 0.0
2018-Jun-15 04:57N 66°14' E 013°03'0 0.0
2018-Jun-15 04:30N 66°14' E 013°03'0 0.0
2018-Jun-15 04:00N 66°14' E 013°03'0 0.0
2018-Jun-15 03:30N 66°14' E 013°03'0 0.0
2018-Jun-15 03:00N 66°14' E 013°03'0 0.0
2018-Jun-15 02:30N 66°14' E 013°03'0 0.0
2018-Jun-15 02:00N 66°14' E 013°03'0 0.1
2018-Jun-15 01:30N 66°14' E 013°03'0 0.0
2018-Jun-15 01:00N 66°14' E 013°03'0 0.1
2018-Jun-15 00:30N 66°14' E 013°03'0 0.0
2018-Jun-15 00:00N 66°14' E 013°03'0 0.0
2018-Jun-14 23:30N 66°14' E 013°03'0 0.1
2018-Jun-14 23:00N 66°14' E 013°02'0 0.0
2018-Jun-14 22:30N 66°14' E 013°02'0 0.0
2018-Jun-14 22:00N 66°14' E 013°02'0 0.1
2018-Jun-14 21:30N 66°14' E 013°02'0 0.0
2018-Jun-14 21:00N 66°14' E 013°02'0 0.1
2018-Jun-14 20:31N 66°14' E 013°02'3 6.7
2018-Jun-14 20:01N 66°13' E 012°54'5 8.9
2018-Jun-14 19:30N 66°13' E 012°43'5 9.6
2018-Jun-14 19:00N 66°15' E 012°32'4 8.9
2018-Jun-14 18:31N 66°16' E 012°22'510.2
2018-Jun-14 18:00N 66°17' E 012°09'510.8
2018-Jun-14 17:31N 66°20' E 011°57'510.5
2018-Jun-14 17:01N 66°22' E 011°46'510.5
2018-Jun-14 16:30N 66°27' E 011°43'510.2
2018-Jun-14 16:01N 66°32' E 011°41'510.1
2018-Jun-14 15:30N 66°37' E 011°39'5 9.9
2018-Jun-14 15:01N 66°42' E 011°37'83 9.9
2018-Jun-14 06:42N 68°03' E 012°16'210.8
2018-Jun-14 06:30N 68°05' E 012°20'510.9
2018-Jun-14 05:59N 68°10' E 012°29'511.0
2018-Jun-14 05:30N 68°14' E 012°37'510.9
2018-Jun-14 05:01N 68°18' E 012°46'610.8
2018-Jun-14 04:29N 68°23' E 012°55'510.7
2018-Jun-14 04:00N 68°27' E 013°03'510.7
2018-Jun-14 03:30N 68°31' E 013°12'610.8
2018-Jun-14 02:59N 68°36' E 013°21'510.9
2018-Jun-14 02:30N 68°40' E 013°29'511.0
2018-Jun-14 02:00N 68°45' E 013°38'611.1
2018-Jun-14 01:30N 68°49' E 013°47'611.2
2018-Jun-14 00:59N 68°53' E 013°57'511.2
2018-Jun-14 00:31N 68°58' E 014°06'611.0
2018-Jun-14 00:00N 69°02' E 014°15'510.7
2018-Jun-13 23:30N 69°06' E 014°24'510.5
2018-Jun-13 23:00N 69°10' E 014°34'510.2
2018-Jun-13 22:30N 69°14' E 014°42'510.5
2018-Jun-13 22:00N 69°19' E 014°50'610.8
2018-Jun-13 21:29N 69°23' E 014°60'510.6
2018-Jun-13 21:00N 69°27' E 015°10'510.7
2018-Jun-13 20:29N 69°30' E 015°23'510.3
2018-Jun-13 20:00N 69°33' E 015°35'5 9.3
2018-Jun-13 19:30N 69°36' E 015°45'5 9.4
2018-Jun-13 19:00N 69°39' E 015°55'5 9.7
2018-Jun-13 18:30N 69°42' E 016°05'5 9.8
2018-Jun-13 18:00N 69°45' E 016°16'510.1
2018-Jun-13 17:30N 69°49' E 016°27'510.2
2018-Jun-13 17:00N 69°52' E 016°38'4910.5
2018-Jun-13 12:18N 70°25' E 018°26'310.1
2018-Jun-13 12:00N 70°27' E 018°34'510.1
2018-Jun-13 11:30N 70°29' E 018°47'5 9.9
2018-Jun-13 10:59N 70°31' E 019°01'5 9.7
2018-Jun-13 10:31N 70°33' E 019°14'5 9.8
2018-Jun-13 09:59N 70°35' E 019°28'510.2
2018-Jun-13 09:31N 70°38' E 019°41'510.3
2018-Jun-13 09:00N 70°40' E 019°55'3810.8
2018-Jun-13 05:28N 70°55' E 021°41'510.9
2018-Jun-13 05:00N 70°58' E 021°54'611.0
2018-Jun-13 04:30N 71°01' E 022°09'5 9.6
2018-Jun-13 04:00N 71°03' E 022°22'5 9.4
2018-Jun-13 03:30N 71°05' E 022°35'5 9.8
2018-Jun-13 03:00N 71°07' E 022°49'510.0
2018-Jun-13 02:30N 71°09' E 023°03'5 9.8
2018-Jun-13 02:01N 71°11' E 023°16'5 9.8
2018-Jun-13 01:30N 71°14' E 023°30'5 9.9
2018-Jun-13 01:00N 71°16' E 023°44'5 9.8
2018-Jun-13 00:30N 71°18' E 023°58'510.0
2018-Jun-13 00:00N 71°19' E 024°13'510.4
2018-Jun-12 23:30N 71°20' E 024°29'510.4
2018-Jun-12 23:00N 71°21' E 024°45'510.6
2018-Jun-12 22:30N 71°22' E 025°01'510.7
2018-Jun-12 22:00N 71°22' E 025°18'511.1
2018-Jun-12 21:30N 71°24' E 025°34'610.7
2018-Jun-12 20:59N 71°23' E 025°52'510.9
2018-Jun-12 20:30N 71°23' E 026°08'611.7
2018-Jun-12 20:00N 71°23' E 026°26'611.8
2018-Jun-12 19:30N 71°22' E 026°45'611.3
2018-Jun-12 19:00N 71°22' E 027°02'611.2
2018-Jun-12 18:30N 71°21' E 027°20'611.6
2018-Jun-12 17:59N 71°21' E 027°39'511.0
2018-Jun-12 17:30N 71°20' E 027°55'510.4
2018-Jun-12 17:00N 71°19' E 028°11'510.4
2018-Jun-12 16:31N 71°18' E 028°27'510.4
2018-Jun-12 16:00N 71°16' E 028°42'510.1
2018-Jun-12 15:30N 71°14' E 028°57'510.0
2018-Jun-12 15:01N 71°13' E 029°11'510.1
2018-Jun-12 14:30N 71°12' E 029°27'510.1
2018-Jun-12 14:00N 71°11' E 029°42'510.2
2018-Jun-12 13:30N 71°10' E 029°58'36 8.2
2018-Jun-12 09:05N 70°45' E 031°20'111.3
2018-Jun-12 09:00N 70°45' E 031°21'  

Dump ship's entire track history